createdAt,value
2017-09-21T00:00:44.470Z,71.90
2017-09-21T00:03:13.410Z,71.90
2017-09-21T00:05:41.698Z,71.90
2017-09-21T00:08:09.835Z,71.70
2017-09-21T00:10:38.031Z,71.90
2017-09-21T00:13:06.178Z,71.90
2017-09-21T00:15:34.329Z,72.00
2017-09-21T00:18:03.262Z,71.90
2017-09-21T00:20:31.398Z,71.90
2017-09-21T00:22:59.549Z,71.90
2017-09-21T00:25:27.847Z,72.00
2017-09-21T00:27:56.764Z,72.00
2017-09-21T00:30:24.930Z,71.90
2017-09-21T00:32:53.068Z,72.00
2017-09-21T00:35:22.012Z,72.50
2017-09-21T00:37:50.185Z,71.90
2017-09-21T00:40:18.323Z,72.30
2017-09-21T00:42:47.384Z,72.00
2017-09-21T00:45:15.554Z,72.00
2017-09-21T00:47:43.696Z,72.00
2017-09-21T00:50:11.990Z,72.00
2017-09-21T00:52:40.130Z,72.10
2017-09-21T00:55:08.294Z,72.30
2017-09-21T00:57:36.441Z,72.40
2017-09-21T01:00:04.621Z,72.40
2017-09-21T01:02:32.762Z,72.20
2017-09-21T01:05:01.054Z,72.40
2017-09-21T01:07:29.232Z,72.70
2017-09-21T01:09:57.398Z,73.00
2017-09-21T01:12:25.560Z,72.80
2017-09-21T01:14:53.704Z,72.60
2017-09-21T01:17:21.849Z,72.50
2017-09-21T01:19:50.889Z,72.40
2017-09-21T01:22:19.060Z,72.40
2017-09-21T01:24:47.196Z,72.30
2017-09-21T01:27:15.341Z,72.50
2017-09-21T01:29:43.512Z,72.40
2017-09-21T01:32:11.657Z,72.40
2017-09-21T01:34:39.784Z,72.20
2017-09-21T01:37:08.821Z,71.90
2017-09-21T01:39:37.018Z,71.90
2017-09-21T01:42:05.174Z,71.80
2017-09-21T01:44:33.467Z,72.00
2017-09-21T01:47:01.608Z,72.10
2017-09-21T01:49:29.783Z,71.80
2017-09-21T01:51:57.925Z,71.60
2017-09-21T01:54:26.210Z,71.50
2017-09-21T01:56:54.349Z,71.60
2017-09-21T01:59:22.533Z,71.90
2017-09-21T02:01:51.447Z,72.00
2017-09-21T02:04:19.622Z,71.80
2017-09-21T02:06:47.760Z,71.80
2017-09-21T02:09:16.048Z,72.10
2017-09-21T02:11:44.984Z,72.10
2017-09-21T02:14:13.134Z,72.00
2017-09-21T02:16:41.296Z,71.80
2017-09-21T02:19:10.205Z,71.90
2017-09-21T02:21:38.408Z,71.90
2017-09-21T02:24:06.528Z,71.70
2017-09-21T02:26:35.457Z,71.80
2017-09-21T02:29:03.736Z,72.40
2017-09-21T02:31:31.873Z,71.40
2017-09-21T02:34:00.810Z,71.50
2017-09-21T02:36:28.945Z,71.50
2017-09-21T02:38:57.116Z,71.60
2017-09-21T02:41:25.265Z,71.50
2017-09-21T02:43:53.414Z,72.90
2017-09-21T02:46:21.609Z,72.50
2017-09-21T02:48:49.745Z,72.90
2017-09-21T02:51:17.925Z,72.90
2017-09-21T02:53:46.065Z,72.00
2017-09-21T02:56:14.204Z,72.90
2017-09-21T02:58:42.364Z,73.00
2017-09-21T03:01:10.523Z,73.10
2017-09-21T03:03:38.809Z,73.30
2017-09-21T03:06:06.958Z,73.60
2017-09-21T03:08:35.103Z,74.00
2017-09-21T03:11:04.028Z,74.80
2017-09-21T03:13:32.204Z,74.80
2017-09-21T03:16:00.389Z,74.90
2017-09-21T03:18:28.517Z,75.40
2017-09-21T03:20:56.660Z,75.80
2017-09-21T03:23:24.858Z,75.90
2017-09-21T03:25:53.023Z,75.80
2017-09-21T03:28:21.949Z,75.50
2017-09-21T03:30:50.093Z,75.50
2017-09-21T03:33:19.020Z,75.60
2017-09-21T03:35:47.161Z,75.60
2017-09-21T03:38:15.331Z,76.10
2017-09-21T03:40:44.365Z,77.40
2017-09-21T03:43:12.517Z,78.10
2017-09-21T03:45:41.917Z,77.70
2017-09-21T03:48:10.053Z,78.20
2017-09-21T03:50:38.241Z,78.80
2017-09-21T03:53:07.157Z,79.10
2017-09-21T03:55:35.289Z,79.10
2017-09-21T03:58:03.587Z,78.80
2017-09-21T04:00:32.487Z,79.50
2017-09-21T04:03:00.662Z,79.30
2017-09-21T04:05:28.808Z,79.00
2017-09-21T04:07:56.955Z,78.90
2017-09-21T04:10:25.122Z,78.70
2017-09-21T04:12:53.397Z,78.60
2017-09-21T04:15:21.549Z,77.40
2017-09-21T04:17:49.724Z,77.30
2017-09-21T04:20:17.864Z,77.10
2017-09-21T04:22:46.836Z,77.00
2017-09-21T04:25:15.023Z,77.00
2017-09-21T04:27:43.957Z,77.10
2017-09-21T04:30:12.133Z,76.70
2017-09-21T04:32:40.402Z,77.60
2017-09-21T04:35:08.576Z,76.60
2017-09-21T04:37:36.769Z,76.10
2017-09-21T04:40:04.945Z,76.10
2017-09-21T04:42:33.125Z,76.00
2017-09-21T04:45:02.241Z,75.70
2017-09-21T04:47:31.444Z,75.60
2017-09-21T04:49:59.609Z,75.60
2017-09-21T04:52:28.939Z,75.40
2017-09-21T04:54:57.984Z,76.40
2017-09-21T04:57:26.130Z,76.30
2017-09-21T04:59:54.313Z,76.40
2017-09-21T05:02:22.452Z,76.30
2017-09-21T05:04:51.500Z,76.10
2017-09-21T05:07:19.678Z,75.90
2017-09-21T05:09:47.818Z,76.10
2017-09-21T05:12:16.021Z,76.30
2017-09-21T05:14:44.761Z,76.30
2017-09-21T05:17:12.940Z,76.30
2017-09-21T05:19:41.077Z,76.30
2017-09-21T05:22:09.249Z,76.40
2017-09-21T05:24:37.408Z,76.20
2017-09-21T05:27:05.550Z,76.00
2017-09-21T05:29:33.841Z,75.90
2017-09-21T05:32:01.989Z,76.10
2017-09-21T05:34:31.376Z,76.10
2017-09-21T05:36:59.521Z,76.20
2017-09-21T05:39:27.668Z,76.50
2017-09-21T05:41:55.970Z,76.70
2017-09-21T05:44:24.118Z,76.60
2017-09-21T05:46:52.318Z,76.10
2017-09-21T05:49:20.465Z,76.10
2017-09-21T05:51:48.641Z,76.20
2017-09-21T05:54:16.822Z,76.40
2017-09-21T05:56:45.096Z,76.60
2017-09-21T05:59:14.634Z,76.90
2017-09-21T06:07:00.160Z,75.60
2017-09-21T06:09:28.330Z,75.50
2017-09-21T06:11:57.260Z,75.90
2017-09-21T06:14:25.452Z,75.80
2017-09-21T06:16:54.092Z,76.00
2017-09-21T06:19:22.264Z,76.60
2017-09-21T06:21:50.477Z,77.20
2017-09-21T06:24:18.765Z,77.50
2017-09-21T06:26:46.947Z,77.70
2017-09-21T06:29:15.099Z,78.90
2017-09-21T06:31:43.278Z,79.20
2017-09-21T06:34:11.443Z,79.60
2017-09-21T06:36:39.577Z,78.60
2017-09-21T06:39:07.767Z,78.40
2017-09-21T06:41:35.904Z,78.50
2017-09-21T06:44:05.739Z,79.60
2017-09-21T06:46:34.645Z,79.10
2017-09-21T06:49:02.809Z,79.10
2017-09-21T06:51:31.626Z,79.40
2017-09-21T06:53:59.782Z,79.30
2017-09-21T06:56:27.945Z,79.30
2017-09-21T06:58:56.096Z,79.30
2017-09-21T07:01:24.293Z,79.20
2017-09-21T07:03:52.451Z,79.90
2017-09-21T07:06:21.374Z,78.90
2017-09-21T07:08:49.523Z,78.80
2017-09-21T07:11:17.725Z,79.30
2017-09-21T07:13:45.861Z,79.40
2017-09-21T07:16:14.001Z,79.70
2017-09-21T07:18:42.289Z,80.00
2017-09-21T07:21:10.462Z,79.00
2017-09-21T07:23:38.635Z,80.00
2017-09-21T07:26:06.768Z,80.20
2017-09-21T07:28:34.949Z,80.10
2017-09-21T07:31:03.098Z,80.20
2017-09-21T07:33:31.248Z,79.70
2017-09-21T07:35:59.541Z,79.90
2017-09-21T07:38:28.439Z,79.80
2017-09-21T07:40:56.653Z,79.80
2017-09-21T07:43:24.800Z,80.00
2017-09-21T07:45:52.964Z,79.70
2017-09-21T07:48:21.144Z,79.70
2017-09-21T07:50:49.291Z,79.70
2017-09-21T07:53:18.228Z,78.70
2017-09-21T07:55:46.368Z,78.70
2017-09-21T07:58:14.657Z,78.70
2017-09-21T08:00:42.801Z,79.00
2017-09-21T08:03:11.713Z,78.10
2017-09-21T08:05:39.893Z,78.00
2017-09-21T08:08:08.030Z,78.00
2017-09-21T08:10:36.965Z,77.30
2017-09-21T08:13:05.136Z,77.30
2017-09-21T08:15:34.063Z,77.90
2017-09-21T08:18:02.200Z,77.70
2017-09-21T08:20:30.485Z,77.70
2017-09-21T08:22:58.638Z,76.80
2017-09-21T08:25:26.879Z,77.60
2017-09-21T08:27:56.752Z,77.00
2017-09-21T08:30:27.545Z,77.20
2017-09-21T08:32:57.563Z,77.20
2017-09-21T08:35:28.282Z,76.90
2017-09-21T08:38:00.692Z,77.20
2017-09-21T08:40:32.545Z,77.10
2017-09-21T08:43:04.832Z,75.60
2017-09-21T08:45:35.111Z,76.20
2017-09-21T08:48:06.745Z,75.40
2017-09-21T08:50:37.790Z,75.30
2017-09-21T08:53:09.135Z,75.80
2017-09-21T08:55:40.196Z,74.70
2017-09-21T08:58:10.807Z,71.50
2017-09-21T09:00:41.037Z,71.40
2017-09-21T09:03:13.789Z,70.20
2017-09-21T09:05:42.971Z,70.20
2017-09-21T09:08:11.196Z,68.10
2017-09-21T09:10:39.345Z,64.80
2017-09-21T09:13:07.627Z,62.10
2017-09-21T09:15:35.812Z,62.60
2017-09-21T09:18:05.201Z,60.40
2017-09-21T09:20:33.340Z,61.30
2017-09-21T09:23:01.512Z,60.20
2017-09-21T09:25:30.572Z,60.80
2017-09-21T09:27:59.481Z,60.30
2017-09-21T09:30:27.628Z,60.20
2017-09-21T09:32:55.918Z,60.20
2017-09-21T09:35:24.830Z,60.70
2017-09-21T09:37:53.024Z,60.70
2017-09-21T09:40:21.161Z,60.90
2017-09-21T09:42:49.344Z,62.90
2017-09-21T09:45:17.512Z,63.20
2017-09-21T09:47:45.809Z,61.20
2017-09-21T09:50:13.952Z,61.10
2017-09-21T09:52:42.112Z,60.60
2017-09-21T09:55:10.326Z,59.60
2017-09-21T09:57:38.489Z,59.60
2017-09-21T10:00:07.392Z,61.20
2017-09-21T10:02:35.572Z,61.20
2017-09-21T10:05:03.713Z,61.60
2017-09-21T10:07:32.781Z,60.20
2017-09-21T10:10:00.933Z,60.00
2017-09-21T10:12:29.108Z,60.60
2017-09-21T10:14:57.334Z,60.70
2017-09-21T10:17:26.245Z,59.60
2017-09-21T10:19:54.460Z,59.60
2017-09-21T10:22:22.621Z,61.10
2017-09-21T10:24:50.807Z,60.50
2017-09-21T10:27:20.261Z,59.80
2017-09-21T10:29:48.414Z,59.50
2017-09-21T10:32:16.548Z,60.60
2017-09-21T10:34:49.794Z,59.30
2017-09-21T10:37:17.941Z,59.80
2017-09-21T10:39:46.093Z,59.20
2017-09-21T10:42:14.264Z,60.90
2017-09-21T10:44:42.421Z,59.30
2017-09-21T10:47:10.600Z,58.30
2017-09-21T10:49:38.752Z,57.50
2017-09-21T10:52:07.029Z,58.00
2017-09-21T10:54:35.168Z,57.40
2017-09-21T10:57:04.096Z,56.20
2017-09-21T10:59:32.261Z,56.20
2017-09-21T11:02:00.441Z,55.60
2017-09-21T11:04:28.620Z,54.10
2017-09-21T11:06:56.775Z,54.80
2017-09-21T11:09:24.981Z,52.70
2017-09-21T11:11:53.132Z,54.30
2017-09-21T11:14:21.286Z,52.00
2017-09-21T11:16:50.248Z,51.10
2017-09-21T11:19:19.125Z,51.10
2017-09-21T11:21:47.321Z,51.70
2017-09-21T11:24:15.605Z,50.00
2017-09-21T11:26:44.512Z,50.60
2017-09-21T11:29:12.661Z,50.60
2017-09-21T11:31:40.832Z,50.60
2017-09-21T11:34:08.988Z,50.40
2017-09-21T11:36:37.190Z,49.30
2017-09-21T11:39:06.876Z,49.00
2017-09-21T11:41:35.390Z,49.00
2017-09-21T11:44:04.327Z,47.10
2017-09-21T11:46:32.511Z,47.00
2017-09-21T11:49:00.719Z,48.20
2017-09-21T11:51:28.948Z,49.50
2017-09-21T11:53:57.124Z,49.50
2017-09-21T11:56:25.270Z,46.60
2017-09-21T11:58:53.553Z,47.20
2017-09-21T12:01:23.197Z,47.20
2017-09-21T12:03:51.343Z,48.50
2017-09-21T12:06:19.556Z,47.50
2017-09-21T12:08:47.692Z,48.60
2017-09-21T12:11:15.846Z,46.60
2017-09-21T12:13:44.015Z,46.70
2017-09-21T12:16:12.152Z,46.00
2017-09-21T12:18:40.332Z,47.60
2017-09-21T12:21:08.476Z,48.70
2017-09-21T12:23:36.688Z,46.60
2017-09-21T12:26:05.586Z,46.70
2017-09-21T12:28:34.496Z,47.90
2017-09-21T12:31:02.661Z,47.90
2017-09-21T12:33:31.720Z,48.40
2017-09-21T12:36:01.265Z,47.30
2017-09-21T12:38:30.311Z,48.10
2017-09-21T12:40:59.633Z,47.00
2017-09-21T12:43:29.016Z,47.20
2017-09-21T12:45:57.238Z,47.60
2017-09-21T12:48:25.406Z,46.70
2017-09-21T12:50:54.321Z,47.10
2017-09-21T12:53:22.536Z,47.10
2017-09-21T12:55:51.171Z,46.00
2017-09-21T12:58:19.383Z,46.40
2017-09-21T13:00:47.536Z,46.30
2017-09-21T13:03:15.735Z,46.00
2017-09-21T13:05:43.927Z,45.20
2017-09-21T13:08:12.058Z,43.90
2017-09-21T13:10:40.341Z,42.40
2017-09-21T13:13:08.906Z,42.10
2017-09-21T13:15:38.172Z,42.40
2017-09-21T13:18:07.439Z,42.30
2017-09-21T13:20:35.734Z,43.60
2017-09-21T13:23:04.872Z,43.20
2017-09-21T13:28:07.420Z,40.90
2017-09-21T13:30:35.597Z,42.00
2017-09-21T13:33:04.698Z,43.30
2017-09-21T13:35:34.416Z,43.60
2017-09-21T13:38:02.592Z,43.50
2017-09-21T13:40:31.749Z,41.90
2017-09-21T13:42:59.933Z,41.80
2017-09-21T13:45:28.966Z,42.10
2017-09-21T13:47:57.341Z,42.00
2017-09-21T13:50:26.312Z,43.00
2017-09-21T13:52:57.245Z,45.20
2017-09-21T13:55:26.213Z,47.80
2017-09-21T13:57:56.602Z,49.10
2017-09-21T14:00:27.133Z,49.70
2017-09-21T14:02:58.069Z,49.50
2017-09-21T14:05:30.039Z,48.50
2017-09-21T14:08:00.378Z,47.20
2017-09-21T14:10:30.096Z,47.50
2017-09-21T14:13:00.580Z,56.70
2017-09-21T14:15:32.284Z,56.50
2017-09-21T14:18:01.357Z,64.00
2017-09-21T14:20:31.797Z,57.40
2017-09-21T14:23:02.824Z,57.70
2017-09-21T14:25:34.384Z,58.20
2017-09-21T14:28:05.213Z,55.10
2017-09-21T14:30:34.344Z,53.10
2017-09-21T14:33:04.840Z,50.90
2017-09-21T14:35:35.358Z,47.90
2017-09-21T14:38:06.196Z,46.90
2017-09-21T14:40:36.909Z,54.00
2017-09-21T14:43:07.596Z,54.80
2017-09-21T14:45:36.460Z,54.20
2017-09-21T14:48:05.386Z,53.60
2017-09-21T14:53:04.275Z,54.10
2017-09-21T14:55:33.582Z,54.60
2017-09-21T14:58:03.042Z,56.80
2017-09-21T15:00:32.466Z,48.10
2017-09-21T15:03:01.847Z,43.90
2017-09-21T15:05:32.039Z,41.00
2017-09-21T15:08:02.605Z,40.90
2017-09-21T15:10:33.584Z,41.10
2017-09-21T15:13:03.513Z,41.10
2017-09-21T15:15:35.197Z,42.80
2017-09-21T15:18:04.803Z,42.80
2017-09-21T15:20:35.449Z,42.80
2017-09-21T15:23:06.514Z,43.10
2017-09-21T15:25:37.581Z,42.80
2017-09-21T15:28:09.057Z,42.70
2017-09-21T15:30:39.526Z,43.30
2017-09-21T15:33:10.059Z,44.50
2017-09-21T15:35:39.970Z,42.90
2017-09-21T15:38:11.060Z,42.10
2017-09-21T15:40:42.161Z,43.90
2017-09-21T15:43:10.680Z,43.50
2017-09-21T15:45:39.993Z,44.10
2017-09-21T15:48:08.192Z,43.00
2017-09-21T15:50:39.050Z,44.40
2017-09-21T15:53:08.622Z,43.60
2017-09-21T15:55:39.596Z,43.90
2017-09-21T15:58:09.305Z,43.90
2017-09-21T16:00:38.147Z,43.80
2017-09-21T16:03:08.953Z,44.20
2017-09-21T16:05:41.013Z,44.10
2017-09-21T16:08:12.314Z,43.70
2017-09-21T16:10:43.334Z,45.00
2017-09-21T16:13:16.421Z,45.00
2017-09-21T16:15:47.943Z,45.40
2017-09-21T16:18:18.956Z,44.30
2017-09-21T16:20:50.126Z,46.20
2017-09-21T16:23:21.525Z,46.80
2017-09-21T16:25:54.288Z,45.40
2017-09-21T16:28:24.938Z,45.40
2017-09-21T16:31:01.526Z,46.40
2017-09-21T16:33:38.817Z,46.00
2017-09-21T16:36:10.101Z,46.30
2017-09-21T16:38:41.461Z,46.30
2017-09-21T16:41:12.472Z,46.20
2017-09-21T16:43:44.721Z,47.10
2017-09-21T16:46:18.749Z,47.60
2017-09-21T16:48:47.921Z,47.60
2017-09-21T16:51:20.723Z,46.90
2017-09-21T16:53:51.799Z,48.40
2017-09-21T16:56:26.004Z,48.40
2017-09-21T16:58:57.064Z,48.80
2017-09-21T17:01:29.634Z,48.90
2017-09-21T17:04:01.495Z,48.80
2017-09-21T17:06:32.137Z,49.70
2017-09-21T17:09:01.901Z,49.40
2017-09-21T17:11:34.173Z,49.80
2017-09-21T17:14:06.245Z,49.90
2017-09-21T17:16:37.181Z,49.90
2017-09-21T17:19:09.932Z,50.40
2017-09-21T17:21:42.638Z,50.80
2017-09-21T17:24:14.979Z,50.80
2017-09-21T17:26:46.172Z,51.10
2017-09-21T17:29:18.220Z,52.20
2017-09-21T17:31:51.569Z,52.60
2017-09-21T17:34:23.197Z,52.00
2017-09-21T17:36:54.054Z,52.60
2017-09-21T17:39:27.467Z,53.00
2017-09-21T17:42:00.290Z,53.00
2017-09-21T17:44:32.012Z,53.10
2017-09-21T17:47:04.175Z,53.30
2017-09-21T17:49:36.077Z,53.50
2017-09-21T17:52:07.774Z,53.60
2017-09-21T17:54:41.149Z,53.70
2017-09-21T17:57:14.921Z,54.20
2017-09-21T17:59:46.669Z,54.20
2017-09-21T18:02:18.060Z,54.50
2017-09-21T18:04:51.261Z,54.30
2017-09-21T18:07:22.988Z,54.40
2017-09-21T18:09:55.766Z,54.90
2017-09-21T18:12:27.081Z,54.90
2017-09-21T18:14:58.573Z,55.10
2017-09-21T18:17:31.891Z,55.30
2017-09-21T18:20:03.004Z,55.50
2017-09-21T18:22:35.133Z,55.50
2017-09-21T18:30:29.922Z,55.60
2017-09-21T18:33:03.250Z,55.80
2017-09-21T18:35:35.935Z,55.70
2017-09-21T18:38:06.227Z,55.80
2017-09-21T18:40:39.266Z,56.10
2017-09-21T18:43:11.770Z,56.00
2017-09-21T18:45:43.155Z,56.30
2017-09-21T18:48:17.414Z,56.40
2017-09-21T18:50:48.057Z,56.50
2017-09-21T18:53:21.970Z,56.50
2017-09-21T18:55:55.191Z,57.30
2017-09-21T18:58:28.498Z,56.90
2017-09-21T19:01:00.435Z,57.30
2017-09-21T19:03:32.365Z,57.30
2017-09-21T19:06:03.237Z,57.40
2017-09-21T19:08:35.664Z,57.60
2017-09-21T19:11:07.138Z,57.70
2017-09-21T19:13:39.062Z,57.50
2017-09-21T19:16:11.642Z,57.70
2017-09-21T19:18:43.099Z,57.60
2017-09-21T19:21:15.704Z,57.90
2017-09-21T19:23:47.156Z,57.90
2017-09-21T19:26:18.548Z,57.90
2017-09-21T19:28:52.041Z,58.00
2017-09-21T19:31:24.097Z,58.30
2017-09-21T19:33:56.157Z,58.30
2017-09-21T19:36:27.768Z,58.30
2017-09-21T19:39:01.815Z,58.30
2017-09-21T19:41:33.117Z,58.50
2017-09-21T19:44:05.001Z,58.40
2017-09-21T19:46:36.973Z,58.50
2017-09-21T19:49:08.973Z,58.70
2017-09-21T19:51:39.988Z,58.80
2017-09-21T19:54:10.629Z,58.90
2017-09-21T19:59:25.319Z,59.10
2017-09-21T20:01:57.544Z,59.30
2017-09-21T20:04:29.048Z,59.30
2017-09-21T20:07:00.421Z,59.20
2017-09-21T20:09:31.385Z,59.50
2017-09-21T20:12:00.905Z,59.80
2017-09-21T20:14:32.151Z,60.20
2017-09-21T20:17:04.213Z,60.10
2017-09-21T20:19:35.353Z,60.00
2017-09-21T20:22:06.676Z,60.10
2017-09-21T20:27:14.209Z,60.40
2017-09-21T20:29:45.214Z,60.60
2017-09-21T20:32:18.347Z,61.20
2017-09-21T20:34:49.566Z,61.40
2017-09-21T20:37:20.722Z,61.40
2017-09-21T20:39:52.130Z,61.40
2017-09-21T20:42:21.972Z,61.70
2017-09-21T20:44:54.612Z,61.70
2017-09-21T20:47:24.166Z,61.60
2017-09-21T20:49:54.318Z,61.90
2017-09-21T20:52:26.390Z,61.90
2017-09-21T20:54:57.753Z,62.00
2017-09-21T20:57:28.925Z,61.90
2017-09-21T21:00:00.129Z,62.10
2017-09-21T21:02:32.269Z,63.00
2017-09-21T21:05:04.558Z,63.30
2017-09-21T21:07:35.926Z,62.60
2017-09-21T21:10:07.638Z,62.50
2017-09-21T21:12:39.312Z,62.60
2017-09-21T21:15:10.278Z,62.70
2017-09-21T21:17:40.593Z,62.80
2017-09-21T21:20:10.985Z,62.80
2017-09-21T21:22:41.199Z,62.90
2017-09-21T21:25:13.731Z,63.00
2017-09-21T21:27:45.563Z,63.40
2017-09-21T21:30:18.109Z,63.50
2017-09-21T21:32:49.975Z,63.20
2017-09-21T21:35:20.522Z,64.10
2017-09-21T21:37:50.729Z,63.30
2017-09-21T21:40:21.083Z,63.40
2017-09-21T21:42:52.625Z,63.60
2017-09-21T21:45:24.472Z,63.80
2017-09-21T21:47:55.668Z,63.80
2017-09-21T21:50:27.458Z,63.80
2017-09-21T21:52:58.277Z,63.70
2017-09-21T21:55:29.639Z,64.00
2017-09-21T21:58:00.111Z,63.90
2017-09-21T22:00:32.492Z,64.00
2017-09-21T22:03:04.442Z,64.40
2017-09-21T22:05:35.835Z,64.20
2017-09-21T22:08:06.792Z,64.40
2017-09-21T22:10:38.349Z,64.60
2017-09-21T22:13:09.265Z,64.50
2017-09-21T22:15:40.262Z,64.50
2017-09-21T22:18:11.552Z,64.70
2017-09-21T22:20:43.892Z,64.70
2017-09-21T22:23:14.986Z,64.90
2017-09-21T22:25:45.780Z,65.20
2017-09-21T22:28:15.557Z,65.30
2017-09-21T22:30:45.358Z,65.00
2017-09-21T22:33:17.337Z,65.00
2017-09-21T22:35:48.829Z,65.00
2017-09-21T22:38:20.577Z,65.10
2017-09-21T22:40:52.088Z,65.20
2017-09-21T22:43:22.458Z,65.60
2017-09-21T22:45:53.685Z,65.60
2017-09-21T22:48:25.005Z,65.70
2017-09-21T22:50:57.643Z,65.40
2017-09-21T22:53:28.404Z,65.40
2017-09-21T22:56:00.262Z,65.70
2017-09-21T22:58:31.369Z,65.80
2017-09-21T23:01:02.489Z,65.70
2017-09-21T23:03:35.900Z,65.90
2017-09-21T23:06:07.096Z,65.80
2017-09-21T23:08:38.166Z,65.90
2017-09-21T23:11:08.132Z,65.90
2017-09-21T23:13:39.911Z,66.00
2017-09-21T23:16:10.792Z,66.10
2017-09-21T23:18:42.042Z,65.90
2017-09-21T23:21:14.677Z,66.30
2017-09-21T23:23:45.878Z,66.20
2017-09-21T23:26:18.143Z,66.10
2017-09-21T23:28:48.913Z,66.50
2017-09-21T23:31:20.677Z,66.40
2017-09-21T23:33:51.745Z,66.50
2017-09-21T23:36:23.890Z,66.70
2017-09-21T23:38:54.421Z,66.60
2017-09-21T23:41:26.197Z,66.70
2017-09-21T23:43:56.717Z,66.70
2017-09-21T23:46:28.518Z,66.50
2017-09-21T23:49:00.463Z,66.50
2017-09-21T23:51:30.052Z,66.80
2017-09-21T23:54:02.436Z,66.80
2017-09-21T23:56:35.257Z,67.00
2017-09-21T23:59:05.973Z,67.20
